createdAt,value
2018-08-08T00:00:48.384Z,95416.00
2018-08-08T00:03:18.239Z,95416.29
2018-08-08T00:05:48.287Z,95416.18
2018-08-08T00:08:18.085Z,95415.14
2018-08-08T00:10:47.923Z,95420.78
2018-08-08T00:13:17.726Z,95420.84
2018-08-08T00:15:47.647Z,95425.21
2018-08-08T00:18:17.557Z,95425.65
2018-08-08T00:20:47.439Z,95417.08
2018-08-08T00:23:17.307Z,95425.38
2018-08-08T00:25:47.194Z,95431.08
2018-08-08T00:28:16.996Z,95430.99
2018-08-08T00:30:46.873Z,95429.06
2018-08-08T00:33:16.820Z,95419.89
2018-08-08T00:35:46.804Z,95423.45
2018-08-08T00:38:16.636Z,95428.63
2018-08-08T00:40:46.582Z,95430.39
2018-08-08T00:43:16.463Z,95427.87
2018-08-08T00:45:46.316Z,95427.14
2018-08-08T00:48:16.180Z,95428.56
2018-08-08T00:50:46.123Z,95423.45
2018-08-08T00:53:15.984Z,95422.17
2018-08-08T00:55:45.967Z,95423.45
2018-08-08T00:58:15.768Z,95415.02
2018-08-08T01:00:45.755Z,95422.92
2018-08-08T01:03:15.675Z,95426.04
2018-08-08T01:05:45.664Z,95420.16
2018-08-08T01:08:15.510Z,95419.72
2018-08-08T01:10:45.500Z,95420.30
2018-08-08T01:13:15.381Z,95417.20
2018-08-08T01:15:45.334Z,95414.55
2018-08-08T02:25:00.262Z,95414.00
2018-08-08T02:27:29.363Z,95415.38
2018-08-08T02:29:58.467Z,95420.90
2018-08-08T02:32:27.667Z,95416.19
2018-08-08T02:34:56.789Z,95422.61
2018-08-08T02:37:26.119Z,95428.55
2018-08-08T02:39:55.196Z,95432.97
2018-08-08T02:42:24.230Z,95432.97
2018-08-08T02:44:53.329Z,95434.53
2018-08-08T02:47:22.356Z,95442.34
2018-08-08T02:49:51.357Z,95441.02
2018-08-08T02:52:20.407Z,95431.78
2018-08-08T02:54:49.543Z,95430.36
2018-08-08T02:57:18.518Z,95429.03
2018-08-08T02:59:47.448Z,95433.74
2018-08-08T03:02:16.434Z,95438.38
2018-08-08T03:04:45.523Z,95439.33
2018-08-08T03:07:14.671Z,95442.37
2018-08-08T03:09:43.632Z,95439.25
2018-08-08T03:12:12.559Z,95447.81
2018-08-08T03:14:41.563Z,95444.87
2018-08-08T03:17:10.491Z,95442.69
2018-08-08T03:19:39.408Z,95443.44
2018-08-08T03:22:08.344Z,95443.05
2018-08-08T03:24:37.283Z,95446.88
2018-08-08T03:27:06.281Z,95447.02
2018-08-08T03:29:35.352Z,95446.63
2018-08-08T03:32:04.540Z,95447.94
2018-08-08T03:34:33.447Z,95451.28
2018-08-08T03:37:02.631Z,95458.66
2018-08-08T03:39:31.539Z,95457.33
2018-08-08T03:42:00.482Z,95452.89
2018-08-08T03:44:29.427Z,95454.89
2018-08-08T03:46:58.400Z,95461.05
2018-08-08T03:49:27.447Z,95468.75
2018-08-08T03:51:56.580Z,95470.45
2018-08-08T03:54:25.543Z,95462.99
2018-08-08T03:56:54.508Z,95469.38
2018-08-08T03:59:23.471Z,95465.81
2018-08-08T04:01:52.460Z,95471.58
2018-08-08T04:04:21.473Z,95472.80
2018-08-08T04:06:50.462Z,95471.67
2018-08-08T04:09:19.463Z,95476.42
2018-08-08T04:11:48.463Z,95472.48
2018-08-08T04:14:17.397Z,95473.28
2018-08-08T04:16:46.320Z,95469.95
2018-08-08T04:19:15.287Z,95471.41
2018-08-08T04:21:44.179Z,95474.00
2018-08-08T04:24:13.192Z,95480.66
2018-08-08T04:26:42.131Z,95476.17
2018-08-08T04:29:11.231Z,95472.59
2018-08-08T04:31:40.144Z,95477.22
2018-08-08T04:34:09.039Z,95480.77
2018-08-08T04:36:37.956Z,95480.25
2018-08-08T04:39:08.634Z,95474.89
2018-08-08T04:41:37.819Z,95479.75
2018-08-08T04:44:06.957Z,95490.92
2018-08-08T04:46:35.982Z,95488.89
2018-08-08T04:49:05.051Z,95485.81
2018-08-08T04:51:34.015Z,95488.69
2018-08-08T04:54:03.031Z,95487.91
2018-08-08T04:56:32.035Z,95483.62
2018-08-08T04:59:01.091Z,95486.09
2018-08-08T05:01:30.208Z,95488.84
2018-08-08T05:03:59.247Z,95485.70
2018-08-08T05:06:28.188Z,95483.26
2018-08-08T05:08:57.239Z,95482.27
2018-08-08T05:11:26.267Z,95490.47
2018-08-08T05:13:55.231Z,95489.43
2018-08-08T05:16:24.276Z,95488.45
2018-08-08T05:18:53.387Z,95491.53
2018-08-08T05:21:22.331Z,95489.56
2018-08-08T05:23:51.259Z,95493.83
2018-08-08T05:26:20.337Z,95493.33
2018-08-08T05:28:49.303Z,95492.09
2018-08-08T05:31:18.250Z,95493.47
2018-08-08T05:33:47.232Z,95490.09
2018-08-08T05:36:16.263Z,95469.38
2018-08-08T05:38:45.287Z,95495.32
2018-08-08T05:41:14.331Z,95492.62
2018-08-08T05:43:43.319Z,95493.95
2018-08-08T05:46:12.314Z,95493.62
2018-08-08T05:48:41.379Z,95493.02
2018-08-08T05:51:10.366Z,95492.63
2018-08-08T05:53:39.387Z,95501.88
2018-08-08T05:56:08.531Z,95498.79
2018-08-08T05:58:37.475Z,95502.88
2018-08-08T06:01:06.583Z,95505.35
2018-08-08T06:03:35.526Z,95510.05
2018-08-08T06:06:04.635Z,95508.11
2018-08-08T06:08:33.627Z,95504.73
2018-08-08T06:11:02.517Z,95500.33
2018-08-08T06:13:31.548Z,95503.59
2018-08-08T06:16:00.495Z,95499.48
2018-08-08T06:18:29.433Z,95504.62
2018-08-08T06:20:58.507Z,95500.56
2018-08-08T06:23:27.526Z,95499.33
2018-08-08T06:25:56.519Z,95502.88
2018-08-08T06:28:25.491Z,95501.08
2018-08-08T06:30:54.456Z,95501.98
2018-08-08T06:33:23.435Z,95496.51
2018-08-08T06:35:52.540Z,95499.58
2018-08-08T06:38:21.451Z,95496.16
2018-08-08T06:40:50.447Z,95503.84
2018-08-08T06:43:19.955Z,95508.17
2018-08-08T06:45:48.999Z,95506.45
2018-08-08T06:48:17.971Z,95506.25
2018-08-08T06:50:46.886Z,95505.56
2018-08-08T06:53:15.860Z,95504.09
2018-08-08T06:55:44.976Z,95502.50
2018-08-08T06:58:13.924Z,95507.05
2018-08-08T07:00:43.207Z,95511.20
2018-08-08T07:03:12.123Z,95513.31
2018-08-08T07:05:41.125Z,95503.34
2018-08-08T07:08:10.191Z,95507.36
2018-08-08T07:10:39.180Z,95502.19
2018-08-08T07:13:08.264Z,95501.61
2018-08-08T07:15:37.267Z,95503.08
2018-08-08T07:18:06.747Z,95506.51
2018-08-08T07:20:35.733Z,95507.22
2018-08-08T07:23:04.802Z,95506.47
2018-08-08T07:25:33.926Z,95510.36
2018-08-08T07:28:02.940Z,95513.95
2018-08-08T07:30:31.891Z,95509.50
2018-08-08T07:33:00.839Z,95507.18
2018-08-08T07:35:29.769Z,95508.05
2018-08-08T07:37:58.759Z,95513.75
2018-08-08T07:40:27.806Z,95516.77
2018-08-08T07:42:56.977Z,95511.23
2018-08-08T07:45:27.380Z,95512.75
2018-08-08T07:47:56.374Z,95510.69
2018-08-08T07:50:25.427Z,95509.41
2018-08-08T07:52:54.528Z,95505.77
2018-08-08T07:55:24.257Z,95508.72
2018-08-08T07:57:53.314Z,95504.89
2018-08-08T08:00:25.980Z,95499.14
2018-08-08T08:02:55.601Z,95500.76
2018-08-08T08:05:24.650Z,95508.81
2018-08-08T08:07:53.950Z,95503.90
2018-08-08T08:10:22.953Z,95507.77
2018-08-08T08:12:52.053Z,95507.98
2018-08-08T08:15:21.039Z,95507.73
2018-08-08T08:17:50.016Z,95512.91
2018-08-08T08:20:19.834Z,95516.02
2018-08-08T08:22:49.852Z,95509.66
2018-08-08T08:25:18.814Z,95500.97
2018-08-08T08:27:47.779Z,95506.02
2018-08-08T08:30:18.090Z,95502.96
2018-08-08T08:32:47.576Z,95507.42
2018-08-08T08:35:16.467Z,95509.20
2018-08-08T08:37:45.507Z,95503.77
2018-08-08T08:40:14.919Z,95500.31
2018-08-08T08:42:44.331Z,95502.22
2018-08-08T08:45:13.476Z,95503.59
2018-08-08T08:47:42.393Z,95505.75
2018-08-08T08:50:11.392Z,95501.98
2018-08-08T08:52:40.510Z,95503.94
2018-08-08T08:55:09.563Z,95498.77
2018-08-08T08:57:38.530Z,95500.19
2018-08-08T09:00:10.018Z,95493.50
2018-08-08T09:02:39.056Z,95495.20
2018-08-08T09:05:08.984Z,95504.84
2018-08-08T09:07:37.959Z,95500.58
2018-08-08T09:10:08.068Z,95498.33
2018-08-08T09:12:37.095Z,95497.53
2018-08-08T09:15:07.974Z,95494.86
2018-08-08T09:17:36.958Z,95495.20
2018-08-08T09:20:06.611Z,95489.59
2018-08-08T09:22:36.235Z,95485.35
2018-08-08T09:25:05.532Z,95484.95
2018-08-08T09:27:34.491Z,95494.91
2018-08-08T09:30:07.723Z,95485.38
2018-08-08T09:32:37.595Z,95488.97
2018-08-08T09:35:06.855Z,95487.78
2018-08-08T09:37:36.122Z,95484.55
2018-08-08T09:40:05.906Z,95488.67
2018-08-08T09:42:34.884Z,95484.56
2018-08-08T09:45:03.936Z,95480.59
2018-08-08T09:47:32.882Z,95481.05
2018-08-08T09:50:01.865Z,95480.27
2018-08-08T09:52:30.838Z,95471.15
2018-08-08T09:54:59.851Z,95464.91
2018-08-08T09:57:28.799Z,95459.80
2018-08-08T09:59:57.739Z,95460.95
2018-08-08T10:02:31.806Z,95458.83
2018-08-08T10:05:00.710Z,95457.23
2018-08-08T10:07:29.603Z,95456.20
2018-08-08T10:09:58.539Z,95452.27
2018-08-08T10:12:27.516Z,95451.88
2018-08-08T10:14:56.436Z,95451.14
2018-08-08T10:17:25.454Z,95446.03
2018-08-08T10:19:54.450Z,95442.61
2018-08-08T10:22:23.399Z,95442.96
2018-08-08T10:24:52.355Z,95445.69
2018-08-08T10:27:21.247Z,95443.20
2018-08-08T10:29:50.308Z,95440.80
2018-08-08T10:32:19.250Z,95446.05
2018-08-08T10:34:48.224Z,95441.41
2018-08-08T10:37:17.182Z,95433.29
2018-08-08T10:39:46.185Z,95435.51
2018-08-08T10:42:15.135Z,95433.50
2018-08-08T10:44:44.075Z,95428.99
2018-08-08T10:47:13.022Z,95429.76
2018-08-08T10:49:41.926Z,95427.39
2018-08-08T10:52:10.900Z,95423.54
2018-08-08T10:54:39.867Z,95426.91
2018-08-08T10:57:08.758Z,95428.20
2018-08-08T10:59:37.741Z,95428.52
2018-08-08T11:02:06.900Z,95417.97
2018-08-08T11:04:35.787Z,95426.06
2018-08-08T11:07:04.727Z,95428.03
2018-08-08T11:09:33.614Z,95421.51
2018-08-08T11:12:03.273Z,95420.27
2018-08-08T11:14:32.156Z,95422.95
2018-08-08T11:17:01.068Z,95423.86
2018-08-08T11:19:29.979Z,95428.58
2018-08-08T11:21:58.879Z,95435.71
2018-08-08T11:24:27.926Z,95430.93
2018-08-08T11:26:56.927Z,95416.88
2018-08-08T11:29:25.905Z,95415.15
2018-08-08T11:31:54.929Z,95409.96
2018-08-08T11:34:23.845Z,95416.44
2018-08-08T11:36:52.849Z,95411.34
2018-08-08T11:39:21.795Z,95407.02
2018-08-08T11:41:50.701Z,95413.77
2018-08-08T11:44:19.627Z,95416.18
2018-08-08T11:46:48.609Z,95412.64
2018-08-08T11:49:17.624Z,95415.28
2018-08-08T11:51:46.529Z,95412.23
2018-08-08T11:54:15.489Z,95416.44
2018-08-08T11:56:44.416Z,95408.30
2018-08-08T11:59:13.395Z,95410.53
2018-08-08T12:01:42.414Z,95409.95
2018-08-08T12:04:11.404Z,95410.85
2018-08-08T12:06:40.427Z,95402.77
2018-08-08T12:09:10.391Z,95415.05
2018-08-08T12:11:39.679Z,95413.66
2018-08-08T12:14:08.715Z,95413.30
2018-08-08T12:16:37.606Z,95427.45
2018-08-08T12:19:06.603Z,95417.80
2018-08-08T12:21:35.477Z,95415.75
2018-08-08T12:24:04.674Z,95408.67
2018-08-08T12:26:33.680Z,95408.30
2018-08-08T12:29:02.635Z,95402.27
2018-08-08T12:31:31.649Z,95405.69
2018-08-08T12:34:00.624Z,95401.23
2018-08-08T12:36:29.566Z,95398.42
2018-08-08T12:38:58.643Z,95396.84
2018-08-08T12:41:27.664Z,95398.01
2018-08-08T12:43:56.690Z,95389.31
2018-08-08T12:46:25.732Z,95390.59
2018-08-08T12:48:54.981Z,95386.95
2018-08-08T12:51:23.912Z,95378.38
2018-08-08T12:53:52.839Z,95384.27
2018-08-08T12:56:21.759Z,95379.49
2018-08-08T12:58:50.893Z,95379.55
2018-08-08T13:01:19.952Z,95385.98
2018-08-08T13:03:48.931Z,95386.69
2018-08-08T13:06:17.837Z,95392.05
2018-08-08T13:08:46.799Z,95388.02
2018-08-08T13:11:15.803Z,95390.66
2018-08-08T13:13:44.737Z,95393.66
2018-08-08T13:16:13.826Z,95389.75
2018-08-08T13:18:42.840Z,95382.33
2018-08-08T13:21:11.901Z,95384.20
2018-08-08T13:23:40.879Z,95388.48
2018-08-08T13:26:10.311Z,95387.95
2018-08-08T13:28:39.470Z,95391.77
2018-08-08T13:31:08.392Z,95382.55
2018-08-08T13:33:37.846Z,95377.85
2018-08-08T13:36:06.831Z,95385.33
2018-08-08T13:38:35.783Z,95385.00
2018-08-08T13:41:04.843Z,95379.42
2018-08-08T13:43:33.916Z,95383.94
2018-08-08T13:46:02.910Z,95389.39
2018-08-08T13:48:31.906Z,95393.05
2018-08-08T13:51:00.799Z,95394.66
2018-08-08T13:53:29.782Z,95388.90
2018-08-08T13:55:58.738Z,95387.51
2018-08-08T13:58:27.631Z,95385.94
2018-08-08T14:00:56.528Z,95390.28
2018-08-08T14:03:25.432Z,95385.18
2018-08-08T14:05:54.426Z,95382.86
2018-08-08T14:08:23.323Z,95386.78
2018-08-08T14:10:52.250Z,95386.83
2018-08-08T14:13:21.239Z,95389.20
2018-08-08T14:15:50.221Z,95380.93
2018-08-08T14:18:19.251Z,95384.52
2018-08-08T14:20:48.208Z,95390.81
2018-08-08T14:23:17.147Z,95381.73
2018-08-08T14:25:46.136Z,95387.78
2018-08-08T14:28:15.017Z,95390.47
2018-08-08T14:30:44.122Z,95395.72
2018-08-08T14:33:13.026Z,95393.73
2018-08-08T14:35:41.923Z,95389.41
2018-08-08T14:38:10.898Z,95383.45
2018-08-08T14:40:39.868Z,95381.00
2018-08-08T14:43:08.935Z,95376.67
2018-08-08T14:45:37.885Z,95381.92
2018-08-08T14:48:07.163Z,95390.11
2018-08-08T14:50:36.079Z,95389.78
2018-08-08T14:53:05.326Z,95394.44
2018-08-08T14:55:34.364Z,95390.64
2018-08-08T14:58:03.328Z,95392.77
2018-08-08T15:00:32.228Z,95386.98
2018-08-08T15:03:01.247Z,95393.30
2018-08-08T15:05:30.127Z,95391.92
2018-08-08T15:07:59.192Z,95391.30
2018-08-08T15:10:28.188Z,95391.69
2018-08-08T15:12:57.098Z,95389.47
2018-08-08T15:15:26.041Z,95398.16
2018-08-08T15:17:55.096Z,95391.61
2018-08-08T15:20:24.075Z,95385.33
2018-08-08T15:22:53.236Z,95387.38
2018-08-08T15:25:22.296Z,95387.98
2018-08-08T15:27:51.257Z,95381.05
2018-08-08T15:30:20.267Z,95377.72
2018-08-08T15:32:49.219Z,95374.45
2018-08-08T15:35:18.163Z,95377.72
2018-08-08T15:37:47.217Z,95380.66
2018-08-08T15:40:16.131Z,95378.30
2018-08-08T15:42:45.085Z,95375.30
2018-08-08T15:45:14.361Z,95377.76
2018-08-08T15:47:43.426Z,95380.66
2018-08-08T15:50:12.594Z,95382.05
2018-08-08T15:52:41.575Z,95381.74
2018-08-08T15:55:11.563Z,95380.98
2018-08-08T15:57:40.492Z,95384.34
2018-08-08T16:00:11.898Z,95391.49
2018-08-08T16:02:40.923Z,95382.68
2018-08-08T16:05:09.913Z,95382.91
2018-08-08T16:07:39.187Z,95373.24
2018-08-08T16:10:10.339Z,95374.27
2018-08-08T16:12:39.464Z,95379.38
2018-08-08T16:15:09.242Z,95381.87
2018-08-08T16:17:38.319Z,95382.55
2018-08-08T16:20:07.404Z,95376.69
2018-08-08T16:22:36.514Z,95384.16
2018-08-08T16:25:05.695Z,95383.30
2018-08-08T16:27:34.715Z,95380.52
2018-08-08T16:30:03.774Z,95386.09
2018-08-08T16:32:32.740Z,95389.48
2018-08-08T16:35:01.624Z,95389.93
2018-08-08T16:37:30.574Z,95391.80
2018-08-08T16:39:59.443Z,95393.09
2018-08-08T16:42:28.348Z,95390.88
2018-08-08T16:44:57.322Z,95396.36
2018-08-08T16:47:26.397Z,95397.58
2018-08-08T16:49:55.304Z,95404.22
2018-08-08T16:52:24.350Z,95409.24
2018-08-08T16:54:53.346Z,95402.60
2018-08-08T16:57:22.368Z,95404.89
2018-08-08T16:59:51.440Z,95397.67
2018-08-08T17:02:20.409Z,95405.64
2018-08-08T17:04:49.315Z,95416.02
2018-08-08T17:07:18.226Z,95417.77
2018-08-08T17:09:47.146Z,95416.30
2018-08-08T17:12:16.090Z,95424.20
2018-08-08T17:14:45.033Z,95418.02
2018-08-08T17:17:14.179Z,95418.05
2018-08-08T17:19:43.090Z,95414.08
2018-08-08T17:22:12.229Z,95422.08
2018-08-08T17:24:41.284Z,95426.52
2018-08-08T17:27:10.226Z,95427.88
2018-08-08T17:29:39.224Z,95424.00
2018-08-08T17:32:08.635Z,95417.09
2018-08-08T17:34:37.664Z,95431.64
2018-08-08T17:37:06.692Z,95430.69
2018-08-08T17:39:35.655Z,95440.12
2018-08-08T17:42:04.548Z,95429.25
2018-08-08T17:44:33.500Z,95432.75
2018-08-08T17:47:03.058Z,95439.33
2018-08-08T17:49:32.132Z,95437.91
2018-08-08T17:52:01.082Z,95441.91
2018-08-08T17:54:30.089Z,95443.36
2018-08-08T17:56:59.295Z,95440.73
2018-08-08T17:59:28.173Z,95438.55
2018-08-08T18:01:57.317Z,95435.60
2018-08-08T18:04:26.333Z,95436.35
2018-08-08T18:06:55.420Z,95444.58
2018-08-08T18:09:24.336Z,95448.90
2018-08-08T18:11:53.266Z,95444.19
2018-08-08T18:14:22.768Z,95447.92
2018-08-08T18:16:51.663Z,95451.41
2018-08-08T18:19:20.661Z,95453.89
2018-08-08T18:21:49.692Z,95456.09
2018-08-08T18:24:18.787Z,95461.86
2018-08-08T18:26:48.260Z,95461.69
2018-08-08T18:29:17.619Z,95465.17
2018-08-08T18:31:46.727Z,95462.44
2018-08-08T18:34:15.648Z,95462.08
2018-08-08T18:36:44.577Z,95470.41
2018-08-08T18:39:13.535Z,95465.06
2018-08-08T18:41:42.635Z,95468.55
2018-08-08T18:44:11.894Z,95469.58
2018-08-08T18:46:40.967Z,95473.44
2018-08-08T18:49:09.957Z,95474.19
2018-08-08T18:51:39.132Z,95477.67
2018-08-08T18:54:08.520Z,95477.14
2018-08-08T18:56:37.598Z,95482.75
2018-08-08T18:59:06.775Z,95482.78
2018-08-08T19:01:35.867Z,95476.70
2018-08-08T19:04:04.887Z,95479.11
2018-08-08T19:06:33.866Z,95479.48
2018-08-08T19:09:02.874Z,95482.06
2018-08-08T19:11:31.748Z,95486.91
2018-08-08T19:14:00.940Z,95485.57
2018-08-08T19:16:29.873Z,95489.45
2018-08-08T19:18:58.867Z,95490.32
2018-08-08T19:21:27.879Z,95489.32
2018-08-08T19:23:56.914Z,95491.47
2018-08-08T19:26:26.362Z,95487.98
2018-08-08T19:28:55.333Z,95486.72
2018-08-08T19:31:24.349Z,95490.27
2018-08-08T19:33:53.398Z,95495.00
2018-08-08T19:36:22.334Z,95495.00
2018-08-08T19:38:51.408Z,95493.56
2018-08-08T19:41:20.416Z,95481.19
2018-08-08T19:43:49.389Z,95484.39
2018-08-08T19:46:18.390Z,95484.08
2018-08-08T19:48:47.336Z,95488.01
2018-08-08T19:51:16.315Z,95481.31
2018-08-08T19:53:58.863Z,95471.40
2018-08-08T19:56:27.857Z,95482.68
2018-08-08T19:58:56.945Z,95469.12
2018-08-08T20:01:27.973Z,95470.83
2018-08-08T20:03:56.986Z,95476.59
2018-08-08T20:06:25.902Z,95478.34
2018-08-08T20:08:54.912Z,95476.46
2018-08-08T20:11:24.163Z,95480.41
2018-08-08T20:13:53.235Z,95485.89
2018-08-08T20:16:22.263Z,95484.09
2018-08-08T20:18:51.223Z,95481.87
2018-08-08T20:21:20.213Z,95474.76
2018-08-08T20:23:49.143Z,95484.46
2018-08-08T20:26:18.171Z,95482.56
2018-08-08T20:28:47.129Z,95490.09
2018-08-08T20:31:16.140Z,95489.34
2018-08-08T20:33:45.290Z,95498.52
2018-08-08T20:36:14.193Z,95495.69
2018-08-08T20:38:43.320Z,95497.80
2018-08-08T20:41:12.428Z,95499.52
2018-08-08T20:43:41.467Z,95497.33
2018-08-08T20:46:10.636Z,95497.41
2018-08-08T20:48:39.827Z,95498.09
2018-08-08T20:51:08.881Z,95497.66
2018-08-08T20:53:37.843Z,95505.48
2018-08-08T20:56:07.044Z,95502.77
2018-08-08T20:58:36.043Z,95502.81
2018-08-08T21:01:05.071Z,95505.28
2018-08-08T21:03:34.089Z,95507.77
2018-08-08T21:06:03.397Z,95501.23
2018-08-08T21:08:32.295Z,95507.75
2018-08-08T21:11:01.163Z,95508.98
2018-08-08T21:13:30.156Z,95510.84
2018-08-08T21:15:59.127Z,95511.19
2018-08-08T21:18:28.095Z,95511.80
2018-08-08T21:20:57.191Z,95514.02
2018-08-08T21:23:26.175Z,95513.63
2018-08-08T21:25:55.105Z,95516.47
2018-08-08T21:28:24.121Z,95510.45
2018-08-08T21:30:53.087Z,95510.34
2018-08-08T21:33:22.089Z,95517.31
2018-08-08T21:35:51.094Z,95518.80
2018-08-08T21:38:20.044Z,95525.98
2018-08-08T21:40:49.185Z,95521.59
2018-08-08T21:43:18.191Z,95524.07
2018-08-08T21:45:47.196Z,95524.31
2018-08-08T21:48:16.184Z,95522.77
2018-08-08T21:50:45.380Z,95531.59
2018-08-08T21:53:16.318Z,95527.70
2018-08-08T21:55:56.197Z,95525.14
2018-08-08T21:58:36.255Z,95519.87
2018-08-08T22:01:16.479Z,95523.75
2018-08-08T22:17:11.887Z,95527.46
2018-08-08T22:19:43.688Z,95515.35
2018-08-08T22:22:12.672Z,95524.63
2018-08-08T22:24:41.751Z,95525.64
2018-08-08T22:27:10.895Z,95531.93
2018-08-08T22:29:39.966Z,95529.77
2018-08-08T22:32:09.020Z,95530.14
2018-08-08T22:34:38.159Z,95539.14
2018-08-08T22:37:07.300Z,95534.84
2018-08-08T22:39:36.248Z,95533.53
2018-08-08T22:42:05.301Z,95532.67
2018-08-08T22:44:34.366Z,95536.56
2018-08-08T22:47:03.480Z,95531.51
2018-08-08T22:49:32.439Z,95530.58
2018-08-08T22:52:01.469Z,95528.31
2018-08-08T22:54:30.388Z,95525.77
2018-08-08T22:56:59.605Z,95529.77
2018-08-08T22:59:28.595Z,95534.13
2018-08-08T23:01:57.639Z,95534.54
2018-08-08T23:04:26.732Z,95535.06
2018-08-08T23:06:55.788Z,95537.09
2018-08-08T23:09:24.785Z,95535.11
2018-08-08T23:11:53.710Z,95536.40
2018-08-08T23:14:22.648Z,95535.27
2018-08-08T23:16:51.619Z,95534.05
2018-08-08T23:19:20.554Z,95535.14
2018-08-08T23:21:49.707Z,95533.27
2018-08-08T23:24:18.698Z,95535.41
2018-08-08T23:26:47.643Z,95539.50
2018-08-08T23:29:16.579Z,95537.08
2018-08-08T23:31:45.559Z,95534.54
2018-08-08T23:34:14.559Z,95536.55
2018-08-08T23:36:43.547Z,95536.67
2018-08-08T23:39:12.622Z,95541.06
2018-08-08T23:41:41.604Z,95542.77
2018-08-08T23:44:10.542Z,95542.60
2018-08-08T23:46:39.827Z,95541.09
2018-08-08T23:49:08.981Z,95543.97
2018-08-08T23:51:37.957Z,95545.59
2018-08-08T23:54:07.337Z,95545.89
2018-08-08T23:56:36.473Z,95547.56
2018-08-08T23:59:05.449Z,95535.40
